createdAt,value
2019-04-28T00:15:57.461Z,4.00
2019-04-28T00:16:57.431Z,4.00
2019-04-28T00:17:57.415Z,4.00
2019-04-28T00:18:57.387Z,4.00
2019-04-28T00:19:57.364Z,4.00
2019-04-28T00:20:57.341Z,4.00
2019-04-28T00:21:57.320Z,4.00
2019-04-28T00:22:57.300Z,4.00
2019-04-28T00:23:57.271Z,4.00
2019-04-28T00:24:57.251Z,4.00
2019-04-28T00:25:57.228Z,4.00
2019-04-28T00:26:57.205Z,4.00
2019-04-28T00:27:57.190Z,4.00
2019-04-28T00:28:57.164Z,4.00
2019-04-28T00:30:55.775Z,4.00
2019-04-28T00:31:55.751Z,4.00
2019-04-28T00:32:55.730Z,4.00
2019-04-28T00:33:55.710Z,4.00
2019-04-28T00:34:55.682Z,4.00
2019-04-28T00:35:55.759Z,4.00
2019-04-28T00:36:55.638Z,4.00
2019-04-28T00:38:28.823Z,4.00
2019-04-28T00:39:28.851Z,4.00
2019-04-28T00:39:55.571Z,4.00
2019-04-28T00:40:55.548Z,4.00
2019-04-28T00:41:55.522Z,4.00
2019-04-28T00:42:55.499Z,4.00
2019-04-28T00:43:55.479Z,4.00
2019-04-28T00:44:55.485Z,4.00
2019-04-28T00:45:55.439Z,4.00
2019-04-28T00:46:55.408Z,4.00
2019-04-28T00:52:41.856Z,4.00
2019-04-28T00:53:41.222Z,4.00
2019-04-28T00:54:42.041Z,4.00
2019-04-28T00:55:43.795Z,4.00
2019-04-28T00:57:25.321Z,4.00
2019-04-28T00:58:25.294Z,4.00
2019-04-28T01:00:31.031Z,4.00
2019-04-28T01:02:13.414Z,4.00
2019-04-28T01:03:46.597Z,4.00
2019-04-28T01:04:46.980Z,4.00
2019-04-28T01:05:13.342Z,4.00
2019-04-28T01:06:14.041Z,4.00
2019-04-28T01:08:58.548Z,4.00
2019-04-28T01:10:31.732Z,4.00
2019-04-28T01:12:46.523Z,4.00
2019-04-28T01:14:16.772Z,4.00
2019-04-28T01:16:30.176Z,4.00
2019-04-28T01:18:01.867Z,4.00
2019-04-28T01:20:13.777Z,4.00
2019-04-28T01:21:46.961Z,4.00
2019-04-28T01:23:59.834Z,4.00
2019-04-28T01:25:32.010Z,4.00
2019-04-28T01:27:43.971Z,4.00
2019-04-28T01:29:17.156Z,4.00
2019-04-28T03:03:04.087Z,4.00
2019-04-28T03:03:30.997Z,4.00
2019-04-28T03:04:31.038Z,4.00
2019-04-28T03:06:04.020Z,4.00
2019-04-28T03:06:30.885Z,4.00
2019-04-28T03:07:31.443Z,4.00
2019-04-28T03:08:30.835Z,4.00
2019-04-28T03:09:30.878Z,4.00
2019-04-28T03:10:31.330Z,4.00
2019-04-28T03:11:31.456Z,4.00
2019-04-28T03:12:31.331Z,4.00
2019-04-28T03:13:31.371Z,4.00
2019-04-28T03:14:30.761Z,4.00
2019-04-28T03:15:30.794Z,4.00
2019-04-28T03:16:30.629Z,4.00
2019-04-28T03:17:31.147Z,4.00
2019-04-28T03:18:31.594Z,4.00
2019-04-28T03:19:33.660Z,4.00
2019-04-28T03:20:30.816Z,4.00
2019-04-28T03:21:31.278Z,4.00
2019-04-28T03:22:32.961Z,4.00
2019-04-28T03:23:31.209Z,4.00
2019-04-28T03:24:31.552Z,4.00
2019-04-28T03:25:33.345Z,4.00
2019-04-28T03:26:30.969Z,4.00
2019-04-28T03:27:31.047Z,8.00
2019-04-28T03:28:30.823Z,8.00
2019-04-28T03:29:30.554Z,8.00
2019-04-28T03:30:33.806Z,8.00
2019-04-28T03:32:04.029Z,8.00
2019-04-28T03:32:44.637Z,8.00
2019-04-28T03:33:34.025Z,4.00
2019-04-28T03:34:32.214Z,4.00
2019-04-28T03:35:32.670Z,4.00
2019-04-28T03:36:33.221Z,4.00
2019-04-28T03:37:31.597Z,4.00
2019-04-28T03:38:30.983Z,4.00
2019-04-28T03:39:30.322Z,4.00
2019-04-28T03:40:31.002Z,4.00
2019-04-28T03:41:31.080Z,8.00
2019-04-28T03:42:31.407Z,8.00
2019-04-28T03:43:30.629Z,8.00
2019-04-28T03:44:30.934Z,8.00
2019-04-28T03:45:30.685Z,8.00
2019-04-28T03:46:30.559Z,12.00
2019-04-28T03:47:31.133Z,8.00
2019-04-28T03:48:30.844Z,12.00
2019-04-28T03:49:30.740Z,12.00
2019-04-28T03:50:31.362Z,12.00
2019-04-28T03:51:30.861Z,16.00
2019-04-28T03:52:31.855Z,16.00
2019-04-28T03:53:31.200Z,16.00
2019-04-28T03:54:30.366Z,16.00
2019-04-28T03:55:31.711Z,20.00
2019-04-28T03:56:31.025Z,24.00
2019-04-28T03:57:31.397Z,24.00
2019-04-28T03:58:31.035Z,24.00
2019-04-28T03:59:31.138Z,28.00
2019-04-28T04:00:31.210Z,32.00
2019-04-28T04:01:30.490Z,32.00
2019-04-28T04:02:31.134Z,40.00
2019-04-28T04:03:30.488Z,44.00
2019-04-28T04:04:31.996Z,48.00
2019-04-28T04:05:30.644Z,52.00
2019-04-28T04:06:31.083Z,56.00
2019-04-28T04:07:31.197Z,64.00
2019-04-28T04:08:31.012Z,72.00
2019-04-28T04:09:31.200Z,80.00
2019-04-28T04:10:30.615Z,84.00
2019-04-28T04:11:31.177Z,88.00
2019-04-28T04:12:30.967Z,96.00
2019-04-28T04:13:32.730Z,104.00
2019-04-28T04:14:31.045Z,112.00
2019-04-28T04:15:30.903Z,120.00
2019-04-28T04:16:30.795Z,128.00
2019-04-28T04:17:30.508Z,140.00
2019-04-28T04:18:30.848Z,144.00
2019-04-28T04:19:30.407Z,152.00
2019-04-28T04:20:31.035Z,160.00
2019-04-28T04:21:31.042Z,172.00
2019-04-28T04:22:31.451Z,180.00
2019-04-28T04:23:30.891Z,196.00
2019-04-28T04:24:30.627Z,204.00
2019-04-28T04:25:31.130Z,216.00
2019-04-28T04:26:32.851Z,228.00
2019-04-28T04:27:30.918Z,240.00
2019-04-28T04:28:30.415Z,252.00
2019-04-28T04:29:30.956Z,268.00
2019-04-28T04:30:31.120Z,288.00
2019-04-28T04:31:31.476Z,304.00
2019-04-28T04:32:30.425Z,316.00
2019-04-28T04:33:31.064Z,332.00
2019-04-28T04:34:30.209Z,352.00
2019-04-28T04:35:31.398Z,376.00
2019-04-28T04:36:31.060Z,404.00
2019-04-28T04:37:30.790Z,424.00
2019-04-28T04:38:30.969Z,448.00
2019-04-28T04:39:30.325Z,464.00
2019-04-28T04:40:31.326Z,484.00
2019-04-28T04:41:30.557Z,508.00
2019-04-28T04:42:30.694Z,532.00
2019-04-28T04:43:30.864Z,552.00
2019-04-28T04:44:30.873Z,580.00
2019-04-28T04:45:30.498Z,604.00
2019-04-28T04:46:31.136Z,628.00
2019-04-28T04:47:32.451Z,656.00
2019-04-28T04:48:31.048Z,680.00
2019-04-28T04:49:31.467Z,712.00
2019-04-28T04:50:31.056Z,740.00
2019-04-28T04:51:30.410Z,772.00
2019-04-28T04:52:30.393Z,800.00
2019-04-28T04:53:30.690Z,824.00
2019-04-28T04:54:32.062Z,848.00
2019-04-28T04:55:30.663Z,868.00
2019-04-28T04:56:30.165Z,892.00
2019-04-28T04:57:32.230Z,920.00
2019-04-28T04:58:30.371Z,948.00
2019-04-28T04:59:30.182Z,980.00
2019-04-28T05:00:28.179Z,1008.00
2019-04-28T05:01:30.303Z,1036.00
2019-04-28T05:02:30.573Z,1064.00
2019-04-28T05:03:29.510Z,1088.00
2019-04-28T05:04:29.706Z,1112.00
2019-04-28T05:05:28.070Z,1136.00
2019-04-28T05:06:29.700Z,1168.00
2019-04-28T05:07:29.672Z,1196.00
2019-04-28T05:08:27.994Z,1224.00
2019-04-28T05:09:29.339Z,1252.00
2019-04-28T05:10:27.946Z,1284.00
2019-04-28T05:11:29.871Z,1320.00
2019-04-28T05:12:27.902Z,1360.00
2019-04-28T05:13:27.879Z,1392.00
2019-04-28T05:14:29.802Z,1424.00
2019-04-28T05:15:27.836Z,1452.00
2019-04-28T05:16:29.672Z,1476.00
2019-04-28T05:17:27.798Z,1512.00
2019-04-28T05:18:29.610Z,1556.00
2019-04-28T05:19:27.741Z,1608.00
2019-04-28T05:20:27.719Z,1668.00
2019-04-28T05:21:31.153Z,1740.00
2019-04-28T05:22:27.674Z,1812.00
2019-04-28T05:23:27.650Z,1872.00
2019-04-28T05:24:27.635Z,1944.00
2019-04-28T05:25:30.915Z,2024.00
2019-04-28T05:26:27.583Z,2100.00
2019-04-28T05:27:27.559Z,2172.00
2019-04-28T05:28:30.575Z,2240.00
2019-04-28T05:29:28.212Z,2308.00
2019-04-28T05:30:27.498Z,2376.00
2019-04-28T05:31:27.470Z,2440.00
2019-04-28T05:32:41.630Z,2512.00
2019-04-28T05:33:30.648Z,2584.00
2019-04-28T05:34:29.522Z,2656.00
2019-04-28T05:35:29.322Z,2728.00
2019-04-28T05:36:27.384Z,2792.00
2019-04-28T05:37:27.341Z,2860.00
2019-04-28T05:38:27.315Z,2936.00
2019-04-28T05:39:27.292Z,3024.00
2019-04-28T05:40:27.268Z,3136.00
2019-04-28T05:41:27.304Z,3260.00
2019-04-28T05:42:27.220Z,3380.00
2019-04-28T05:43:27.198Z,3500.00
2019-04-28T05:44:27.176Z,3596.00
2019-04-28T05:45:27.289Z,3688.00
2019-04-28T05:46:27.134Z,3752.00
2019-04-28T05:47:27.116Z,3812.00
2019-04-28T05:48:27.090Z,3868.00
2019-04-28T05:49:27.068Z,3944.00
2019-04-28T05:50:27.042Z,4044.00
2019-04-28T05:51:27.019Z,4148.00
2019-04-28T05:52:27.009Z,4256.00
2019-04-28T05:53:26.980Z,4368.00
2019-04-28T05:54:26.952Z,4456.00
2019-04-28T05:56:10.548Z,4588.00
2019-04-28T06:01:20.686Z,5156.00
2019-04-28T06:02:21.880Z,5300.00
2019-04-28T06:03:20.596Z,5416.00
2019-04-28T06:04:23.186Z,5504.00
2019-04-28T06:05:20.544Z,5596.00
2019-04-28T06:06:20.534Z,5688.00
2019-04-28T06:10:39.796Z,6260.00
2019-04-28T06:15:49.685Z,6800.00
2019-04-28T06:16:48.051Z,6960.00
2019-04-28T06:17:49.780Z,7164.00
2019-04-28T06:18:49.967Z,7372.00
2019-04-28T06:19:50.251Z,7640.00
2019-04-28T06:20:49.678Z,7900.00
2019-04-28T06:21:47.940Z,8016.00
2019-04-28T06:22:47.914Z,8120.00
2019-04-28T06:23:47.895Z,8092.00
2019-04-28T06:24:47.884Z,8012.00
2019-04-28T06:25:47.908Z,7928.00
2019-04-28T06:26:47.831Z,7848.00
2019-04-28T06:27:47.810Z,7824.00
2019-04-28T06:28:47.789Z,7904.00
2019-04-28T06:29:47.771Z,8040.00
2019-04-28T06:30:47.756Z,8216.00
2019-04-28T06:31:47.729Z,8372.00
2019-04-28T06:32:47.707Z,8556.00
2019-04-28T06:33:47.678Z,8768.00
2019-04-28T06:34:47.656Z,8964.00
2019-04-28T06:35:47.634Z,9160.00
2019-04-28T06:36:47.622Z,9352.00
2019-04-28T06:37:47.594Z,9588.00
2019-04-28T06:38:47.577Z,9868.00
2019-04-28T06:39:47.560Z,10140.00
2019-04-28T06:40:47.526Z,10352.00
2019-04-28T06:41:47.506Z,10496.00
2019-04-28T06:42:47.491Z,10548.00
2019-04-28T06:43:47.471Z,10596.00
2019-04-28T06:44:47.446Z,10480.00
2019-04-28T06:45:47.423Z,10340.00
2019-04-28T06:46:47.404Z,10228.00
2019-04-28T06:47:47.384Z,10244.00
2019-04-28T06:48:47.368Z,10376.00
2019-04-28T06:49:47.344Z,10636.00
2019-04-28T06:50:47.318Z,10900.00
2019-04-28T06:51:47.335Z,11028.00
2019-04-28T06:52:47.278Z,11088.00
2019-04-28T06:53:47.268Z,11272.00
2019-04-28T06:54:47.235Z,11404.00
2019-04-28T06:55:47.216Z,11528.00
2019-04-28T06:56:47.198Z,11424.00
2019-04-28T06:57:47.186Z,11108.00
2019-04-28T06:58:58.460Z,10836.00
2019-04-28T06:59:47.141Z,11028.00
2019-04-28T07:00:47.111Z,11368.00
2019-04-28T07:01:47.091Z,11700.00
2019-04-28T07:02:47.069Z,12028.00
2019-04-28T07:03:47.051Z,12444.00
2019-04-28T07:04:47.037Z,12664.00
2019-04-28T07:05:47.011Z,12744.00
2019-04-28T07:06:46.990Z,12748.00
2019-04-28T07:07:47.001Z,12788.00
2019-04-28T07:08:46.948Z,12756.00
2019-04-28T07:09:46.931Z,12516.00
2019-04-28T07:10:46.910Z,12308.00
2019-04-28T07:11:46.888Z,12116.00
2019-04-28T07:12:46.870Z,12212.00
2019-04-28T07:13:46.857Z,12472.00
2019-04-28T07:14:46.829Z,12728.00
2019-04-28T07:15:46.990Z,13024.00
2019-04-28T07:16:46.788Z,13028.00
2019-04-28T07:17:46.768Z,12884.00
2019-04-28T07:18:46.761Z,12792.00
2019-04-28T07:19:46.731Z,12704.00
2019-04-28T07:21:40.394Z,12764.00
2019-04-28T07:22:40.381Z,12884.00
2019-04-28T07:23:40.364Z,13116.00
2019-04-28T07:24:40.337Z,13404.00
2019-04-28T07:25:40.314Z,13720.00
2019-04-28T07:26:40.297Z,13592.00
2019-04-28T07:27:40.276Z,13216.00
2019-04-28T07:29:13.469Z,13220.00
2019-04-28T07:29:40.241Z,13244.00
2019-04-28T07:30:40.217Z,13100.00
2019-04-28T07:31:40.199Z,11512.00
2019-04-28T07:33:13.397Z,11980.00
2019-04-28T07:34:13.369Z,12348.00
2019-04-28T07:34:40.148Z,12028.00
2019-04-28T07:35:40.122Z,11764.00
2019-04-28T07:38:25.751Z,12060.00
2019-04-28T07:39:25.732Z,12468.00
2019-04-28T07:40:25.709Z,11660.00
2019-04-28T07:41:25.697Z,12328.00
2019-04-28T07:42:25.673Z,15184.00
2019-04-28T07:43:25.653Z,14640.00
2019-04-28T07:44:25.646Z,16800.00
2019-04-28T07:45:58.825Z,20064.00
2019-04-28T07:46:25.611Z,22368.00
2019-04-28T07:47:58.785Z,12764.00
2019-04-28T07:48:58.776Z,16768.00
2019-04-28T07:49:58.767Z,11788.00
2019-04-28T07:50:25.628Z,11448.00
2019-04-28T07:53:11.156Z,12104.00
2019-04-28T09:44:26.588Z,9012.00
2019-04-28T09:44:53.384Z,9576.00
2019-04-28T09:45:53.366Z,10036.00
2019-04-28T09:46:53.318Z,10396.00
2019-04-28T09:47:53.302Z,10712.00
2019-04-28T09:48:53.279Z,11048.00
2019-04-28T09:49:53.266Z,11412.00
2019-04-28T09:50:54.666Z,11820.00
2019-04-28T09:51:53.219Z,12316.00
2019-04-28T09:52:53.200Z,12960.00
2019-04-28T09:53:53.188Z,13900.00
2019-04-28T09:54:53.169Z,15296.00
2019-04-28T09:55:53.150Z,17152.00
2019-04-28T09:56:56.898Z,19008.00
2019-04-28T09:57:54.832Z,20608.00
2019-04-28T09:58:53.082Z,22240.00
2019-04-28T09:59:53.063Z,22720.00
2019-04-28T10:00:53.043Z,25632.00
2019-04-28T10:01:53.027Z,22816.00
2019-04-28T10:02:53.014Z,24288.00
2019-04-28T10:03:53.049Z,24384.00
2019-04-28T10:04:52.969Z,23264.00
2019-04-28T10:05:52.951Z,22592.00
2019-04-28T10:06:52.932Z,22624.00
2019-04-28T10:07:52.919Z,23136.00
2019-04-28T10:08:52.902Z,24128.00
2019-04-28T10:09:52.900Z,24800.00
2019-04-28T10:10:52.867Z,26688.00
2019-04-28T10:11:52.844Z,25152.00
2019-04-28T10:12:52.827Z,20224.00
2019-04-28T10:13:52.809Z,18656.00
2019-04-28T10:14:52.796Z,17632.00
2019-04-28T10:15:52.776Z,16960.00
2019-04-28T10:16:52.760Z,16416.00
2019-04-28T10:17:54.160Z,15680.00
2019-04-28T10:18:52.720Z,15044.00
2019-04-28T10:19:52.724Z,14480.00
2019-04-28T10:20:52.692Z,13996.00
2019-04-28T10:21:52.686Z,13692.00
2019-04-28T10:22:52.670Z,13528.00
2019-04-28T10:23:52.635Z,13344.00
2019-04-28T10:24:52.618Z,13252.00
2019-04-28T10:25:52.603Z,13308.00
2019-04-28T10:26:52.587Z,13512.00
2019-04-28T10:27:52.577Z,13776.00
2019-04-28T10:28:52.548Z,14072.00
2019-04-28T10:29:55.151Z,14524.00
2019-04-28T10:32:07.038Z,15760.00
2019-04-28T10:35:54.758Z,21120.00
2019-04-28T10:37:25.466Z,23360.00
2019-04-28T10:37:52.846Z,25120.00
2019-04-28T10:38:52.030Z,21536.00
2019-04-28T10:39:52.010Z,20960.00
2019-04-28T10:42:06.187Z,30208.00
2019-04-28T10:45:43.262Z,38944.00
2019-04-28T10:47:16.455Z,35744.00
2019-04-28T10:47:43.224Z,49984.00
2019-04-28T10:48:43.259Z,73184.00
2019-04-28T10:49:43.201Z,70912.00
2019-04-28T10:52:59.649Z,62496.00
2019-04-28T10:54:31.620Z,42432.00
2019-04-28T10:54:58.409Z,16392.00
2019-04-28T10:56:31.601Z,12916.00
2019-04-28T10:58:43.524Z,8324.00
2019-04-28T11:00:16.715Z,6852.00
2019-04-28T11:00:43.489Z,5472.00
2019-04-28T11:03:28.628Z,3928.00
2019-04-28T11:05:08.244Z,5368.00
2019-04-28T11:05:28.600Z,8728.00
2019-04-28T11:08:13.786Z,64736.00
2019-04-28T11:10:48.920Z,14704.00
2019-04-28T11:12:22.114Z,13484.00
2019-04-28T11:12:48.885Z,13320.00
2019-04-28T11:49:23.004Z,81248.00
2019-04-28T11:49:49.775Z,61472.00
2019-04-28T11:50:49.772Z,25472.00
2019-04-28T11:54:08.065Z,14056.00
2019-04-28T11:55:08.074Z,12816.00
2019-04-28T11:57:53.093Z,10516.00
2019-04-28T11:58:53.082Z,10544.00
2019-04-28T12:01:38.127Z,10992.00
2019-04-28T12:02:38.108Z,10992.00
2019-04-28T13:14:58.043Z,2096.00
2019-04-28T14:05:45.301Z,13316.00
2019-04-28T14:05:52.830Z,13076.00
2019-04-28T14:06:52.828Z,12764.00
2019-04-28T14:07:52.813Z,12400.00
2019-04-28T14:08:52.783Z,12140.00
2019-04-28T14:09:52.777Z,12012.00
2019-04-28T14:10:52.753Z,11652.00
2019-04-28T14:11:52.734Z,11468.00
2019-04-28T14:12:52.721Z,11412.00
2019-04-28T14:13:52.702Z,11572.00
2019-04-28T14:14:52.704Z,11848.00
2019-04-28T14:15:52.659Z,12136.00
2019-04-28T14:16:52.654Z,12352.00
2019-04-28T14:17:52.678Z,12280.00
2019-04-28T14:18:52.657Z,12056.00
2019-04-28T14:19:52.614Z,11796.00
2019-04-28T14:20:52.588Z,11536.00
2019-04-28T14:21:52.613Z,11364.00
2019-04-28T14:22:52.541Z,11228.00
2019-04-28T14:23:52.533Z,11084.00
2019-04-28T14:24:52.568Z,10888.00
2019-04-28T14:25:52.559Z,10680.00
2019-04-28T14:26:52.475Z,10624.00
2019-04-28T14:27:52.458Z,10492.00
2019-04-28T14:28:52.450Z,10384.00
2019-04-28T14:29:52.421Z,10404.00
2019-04-28T14:30:52.408Z,10476.00
2019-04-28T14:31:52.461Z,10508.00
2019-04-28T14:32:52.386Z,10392.00
2019-04-28T14:33:52.371Z,10272.00
2019-04-28T14:34:52.353Z,10216.00
2019-04-28T14:35:52.326Z,10188.00
2019-04-28T14:36:52.310Z,10204.00
2019-04-28T14:37:52.295Z,10236.00
2019-04-28T14:38:52.285Z,10308.00
2019-04-28T14:39:52.286Z,10404.00
2019-04-28T14:40:52.323Z,10396.00
2019-04-28T14:41:52.222Z,10300.00
2019-04-28T14:42:52.203Z,10120.00
2019-04-28T14:43:52.184Z,9936.00
2019-04-28T14:44:52.160Z,9768.00
2019-04-28T14:45:52.169Z,9616.00
2019-04-28T14:46:52.164Z,9504.00
2019-04-28T14:47:52.130Z,9376.00
2019-04-28T14:48:52.106Z,9320.00
2019-04-28T14:49:52.139Z,9260.00
2019-04-28T14:50:52.066Z,9252.00
2019-04-28T14:51:52.049Z,9348.00
2019-04-28T14:52:52.023Z,9432.00
2019-04-28T14:53:52.006Z,9588.00
2019-04-28T14:54:51.990Z,9656.00
2019-04-28T14:55:51.992Z,9756.00
2019-04-28T14:56:51.959Z,9856.00
2019-04-28T14:57:52.021Z,9868.00
2019-04-28T14:58:51.927Z,9868.00
2019-04-28T14:59:51.952Z,9840.00
2019-04-28T15:00:51.898Z,9852.00
2019-04-28T15:01:51.879Z,9624.00
2019-04-28T15:02:51.911Z,9300.00
2019-04-28T15:03:51.834Z,8876.00
2019-04-28T15:04:51.817Z,8600.00
2019-04-28T15:05:51.810Z,8396.00
2019-04-28T15:06:55.775Z,8236.00
2019-04-28T15:07:51.802Z,8152.00
2019-04-28T15:08:51.844Z,8116.00
2019-04-28T15:09:51.811Z,8112.00
2019-04-28T15:10:51.727Z,8172.00
2019-04-28T15:11:51.714Z,8252.00
2019-04-28T15:12:51.686Z,8252.00
2019-04-28T15:13:51.679Z,8280.00
2019-04-28T15:14:51.700Z,8212.00
2019-04-28T15:15:51.647Z,8204.00
2019-04-28T15:16:51.663Z,8248.00
2019-04-28T15:17:51.666Z,8328.00
2019-04-28T15:18:51.578Z,8396.00
2019-04-28T15:19:51.575Z,8496.00
2019-04-28T15:20:51.552Z,8592.00
2019-04-28T15:21:54.470Z,8584.00
2019-04-28T15:22:51.512Z,8552.00
2019-04-28T15:23:51.502Z,8492.00
2019-04-28T15:24:51.473Z,8436.00
2019-04-28T15:25:51.453Z,8420.00
2019-04-28T15:26:51.441Z,8400.00
2019-04-28T15:27:51.419Z,8372.00
2019-04-28T15:28:51.405Z,8320.00
2019-04-28T15:29:51.386Z,8176.00
2019-04-28T15:30:51.372Z,8080.00
2019-04-28T15:31:51.351Z,8000.00
2019-04-28T15:32:51.337Z,7892.00
2019-04-28T15:33:51.323Z,7828.00
2019-04-28T15:34:51.300Z,7832.00
2019-04-28T15:35:51.277Z,7796.00
2019-04-28T15:36:51.268Z,7744.00
2019-04-28T15:37:51.252Z,7704.00
2019-04-28T15:38:51.230Z,7520.00
2019-04-28T15:39:51.207Z,7336.00
2019-04-28T15:40:51.198Z,7108.00
2019-04-28T15:41:51.174Z,6784.00
2019-04-28T15:42:51.154Z,6456.00
2019-04-28T15:43:51.148Z,6144.00
2019-04-28T15:44:51.128Z,5884.00
2019-04-28T15:45:51.104Z,5644.00
2019-04-28T15:46:51.084Z,5452.00
2019-04-28T15:47:51.072Z,5312.00
2019-04-28T15:48:51.067Z,5216.00
2019-04-28T15:49:51.033Z,5108.00
2019-04-28T15:50:51.012Z,4952.00
2019-04-28T15:51:51.000Z,4736.00
2019-04-28T15:52:51.006Z,4476.00
2019-04-28T15:53:50.961Z,4184.00
2019-04-28T15:54:50.954Z,3852.00
2019-04-28T15:55:50.940Z,3548.00
2019-04-28T15:56:50.906Z,3256.00
2019-04-28T15:57:50.899Z,3012.00
2019-04-28T15:58:50.876Z,2840.00
2019-04-28T15:59:50.846Z,2732.00
2019-04-28T16:00:50.849Z,2672.00
2019-04-28T16:01:50.826Z,2648.00
2019-04-28T16:02:50.793Z,2648.00
2019-04-28T16:03:50.776Z,2584.00
2019-04-28T16:04:50.771Z,2512.00
2019-04-28T16:05:50.746Z,2432.00
2019-04-28T16:06:50.742Z,2348.00
2019-04-28T16:07:50.699Z,2288.00
2019-04-28T16:08:50.702Z,2244.00
2019-04-28T16:09:50.687Z,2220.00
2019-04-28T16:10:50.644Z,2216.00
2019-04-28T16:11:50.633Z,2220.00
2019-04-28T16:12:50.624Z,2232.00
2019-04-28T16:13:50.598Z,2248.00
2019-04-28T16:14:50.577Z,2256.00
2019-04-28T16:15:50.548Z,2260.00
2019-04-28T16:16:50.531Z,2256.00
2019-04-28T16:17:50.528Z,2260.00
2019-04-28T16:18:50.500Z,2228.00
2019-04-28T16:19:50.488Z,2204.00
2019-04-28T16:20:50.458Z,2188.00
2019-04-28T16:21:50.763Z,2184.00
2019-04-28T16:22:50.827Z,2196.00
2019-04-28T16:23:50.397Z,2200.00
2019-04-28T16:24:50.377Z,2184.00
2019-04-28T16:25:50.372Z,2156.00
2019-04-28T16:26:50.337Z,2140.00
2019-04-28T16:27:50.340Z,2128.00
2019-04-28T16:28:50.299Z,2144.00
2019-04-28T16:29:50.285Z,2188.00
2019-04-28T16:30:50.263Z,2208.00
2019-04-28T16:31:50.254Z,2284.00
2019-04-28T16:32:50.225Z,2288.00
2019-04-28T16:33:50.254Z,2272.00
2019-04-28T16:34:50.188Z,2268.00
2019-04-28T16:35:50.186Z,2256.00
2019-04-28T16:36:50.149Z,2248.00
2019-04-28T16:37:50.142Z,2240.00
2019-04-28T16:38:50.166Z,2228.00
2019-04-28T16:39:50.089Z,2212.00
2019-04-28T16:40:50.066Z,2216.00
2019-04-28T16:41:50.052Z,2192.00
2019-04-28T16:42:50.038Z,2184.00
2019-04-28T16:44:54.068Z,2156.00
2019-04-28T16:45:54.039Z,2156.00
2019-04-28T16:46:54.024Z,2136.00
2019-04-28T16:47:54.003Z,2132.00
2019-04-28T16:48:53.989Z,2120.00
2019-04-28T16:49:53.981Z,2116.00
2019-04-28T16:50:53.951Z,2108.00
2019-04-28T16:51:53.923Z,2096.00
2019-04-28T16:52:53.910Z,2088.00
2019-04-28T16:53:53.893Z,2084.00
2019-04-28T16:54:53.868Z,2080.00
2019-04-28T16:55:53.855Z,2076.00
2019-04-28T16:56:53.844Z,2060.00
2019-04-28T16:57:53.809Z,2048.00
2019-04-28T16:58:53.811Z,2044.00
2019-04-28T16:59:53.772Z,2032.00
2019-04-28T17:00:53.746Z,2024.00
2019-04-28T17:01:53.748Z,2016.00
2019-04-28T17:02:53.762Z,2088.00
2019-04-28T17:03:53.687Z,2176.00
2019-04-28T17:04:53.688Z,2492.00
2019-04-28T17:05:53.661Z,2512.00
2019-04-28T17:06:53.644Z,2748.00
2019-04-28T17:07:53.629Z,2444.00
2019-04-28T17:08:56.821Z,2256.00
2019-04-28T17:09:53.574Z,1960.00
2019-04-28T17:10:53.545Z,1916.00
2019-04-28T17:11:53.528Z,1868.00
2019-04-28T17:12:53.510Z,1848.00
2019-04-28T17:13:53.501Z,1832.00
2019-04-28T17:14:53.466Z,1820.00
2019-04-28T17:15:53.469Z,1804.00
2019-04-28T17:16:53.425Z,1796.00
2019-04-28T17:17:53.413Z,1788.00
2019-04-28T17:18:53.386Z,1768.00
2019-04-28T17:19:53.367Z,1756.00
2019-04-28T17:20:55.053Z,1740.00
2019-04-28T17:21:53.333Z,1724.00
2019-04-28T17:22:53.311Z,1712.00
2019-04-28T17:23:53.287Z,1696.00
2019-04-28T17:24:53.284Z,1684.00
2019-04-28T17:25:53.250Z,1668.00
2019-04-28T17:26:53.234Z,1652.00
2019-04-28T17:27:53.207Z,1640.00
2019-04-28T17:28:53.184Z,1620.00
2019-04-28T17:29:53.182Z,1608.00
2019-04-28T17:30:53.144Z,1592.00
2019-04-28T17:31:53.132Z,1584.00
2019-04-28T17:32:53.102Z,1564.00
2019-04-28T17:33:53.088Z,1544.00
2019-04-28T17:34:53.075Z,1532.00
2019-04-28T17:35:53.044Z,1520.00
2019-04-28T17:36:53.033Z,1500.00
2019-04-28T17:38:06.006Z,1484.00
2019-04-28T17:38:56.626Z,1464.00
2019-04-28T17:39:52.964Z,1452.00
2019-04-28T17:40:52.957Z,1432.00
2019-04-28T17:41:52.929Z,1420.00
2019-04-28T17:42:52.903Z,1404.00
2019-04-28T17:43:52.886Z,1388.00
2019-04-28T17:44:52.920Z,1368.00
2019-04-28T17:45:52.863Z,1348.00
2019-04-28T17:46:52.823Z,1336.00
2019-04-28T17:47:52.807Z,1320.00
2019-04-28T17:48:52.793Z,1300.00
2019-04-28T17:49:52.782Z,1280.00
2019-04-28T17:50:52.759Z,1264.00
2019-04-28T17:51:52.731Z,1248.00
2019-04-28T17:52:52.707Z,1228.00
2019-04-28T17:53:52.677Z,1212.00
2019-04-28T17:54:52.666Z,1192.00
2019-04-28T17:55:52.643Z,1176.00
2019-04-28T17:56:52.618Z,1160.00
2019-04-28T17:57:52.621Z,1144.00
2019-04-28T17:58:52.587Z,1128.00
2019-04-28T17:59:52.639Z,1108.00
2019-04-28T18:00:52.591Z,1088.00
2019-04-28T18:01:52.526Z,1068.00
2019-04-28T18:02:52.510Z,1048.00
2019-04-28T18:03:52.486Z,1028.00
2019-04-28T18:04:52.468Z,1004.00
2019-04-28T18:05:52.489Z,984.00
2019-04-28T18:06:52.424Z,964.00
2019-04-28T18:07:52.408Z,948.00
2019-04-28T18:08:52.384Z,928.00
2019-04-28T18:09:52.354Z,904.00
2019-04-28T18:10:52.334Z,884.00
2019-04-28T18:11:52.335Z,860.00
2019-04-28T18:13:00.261Z,836.00
2019-04-28T18:13:52.385Z,816.00
2019-04-28T18:14:52.256Z,792.00
2019-04-28T18:15:52.247Z,768.00
2019-04-28T18:16:52.228Z,748.00
2019-04-28T18:17:52.213Z,728.00
2019-04-28T18:18:52.184Z,704.00
2019-04-28T18:19:52.173Z,680.00
2019-04-28T18:20:52.235Z,664.00
2019-04-28T18:21:52.116Z,640.00
2019-04-28T18:22:52.088Z,620.00
2019-04-28T18:23:52.071Z,592.00
2019-04-28T18:24:52.048Z,572.00
2019-04-28T18:25:52.035Z,552.00
2019-04-28T18:26:52.008Z,528.00
2019-04-28T18:27:52.008Z,508.00
2019-04-28T18:28:51.982Z,488.00
2019-04-28T18:29:51.959Z,468.00
2019-04-28T18:30:51.928Z,448.00
2019-04-28T18:31:51.914Z,424.00
2019-04-28T18:32:51.898Z,408.00
2019-04-28T18:33:51.869Z,388.00
2019-04-28T18:34:51.859Z,368.00
2019-04-28T18:35:51.840Z,348.00
2019-04-28T18:37:35.738Z,312.00
2019-04-28T18:38:35.710Z,296.00
2019-04-28T18:39:35.690Z,280.00
2019-04-28T18:40:35.667Z,264.00
2019-04-28T18:41:35.651Z,244.00
2019-04-28T18:42:35.726Z,228.00
2019-04-28T18:44:08.824Z,212.00
2019-04-28T18:44:35.581Z,200.00
2019-04-28T18:46:08.775Z,180.00
2019-04-28T18:47:08.802Z,168.00
2019-04-28T18:48:08.733Z,156.00
2019-04-28T18:48:36.280Z,144.00
2019-04-28T18:50:08.685Z,132.00
2019-04-28T18:50:35.464Z,120.00
2019-04-28T18:51:35.445Z,104.00
2019-04-28T18:52:35.443Z,96.00
2019-04-28T18:53:35.394Z,88.00
2019-04-28T18:54:35.380Z,80.00
2019-04-28T18:55:35.367Z,68.00
2019-04-28T18:58:55.456Z,52.00
2019-04-28T18:59:24.312Z,44.00
2019-04-28T19:00:55.417Z,40.00
2019-04-28T19:01:22.193Z,36.00
2019-04-28T19:02:22.169Z,28.00
2019-04-28T19:03:22.196Z,28.00
2019-04-28T19:04:22.145Z,20.00
2019-04-28T19:05:22.103Z,24.00
2019-04-28T19:07:04.866Z,20.00
2019-04-28T19:07:22.068Z,16.00
2019-04-28T19:08:22.044Z,16.00
2019-04-28T19:09:22.021Z,12.00
2019-04-28T19:10:22.017Z,12.00
2019-04-28T19:11:22.052Z,12.00
2019-04-28T19:12:21.955Z,8.00
2019-04-28T19:13:21.934Z,12.00
2019-04-28T19:14:21.928Z,8.00
2019-04-28T19:15:21.893Z,8.00
2019-04-28T19:16:21.869Z,8.00
2019-04-28T20:41:40.521Z,4.00
2019-04-28T20:43:07.416Z,4.00
2019-04-28T20:44:07.455Z,4.00
2019-04-28T20:44:34.164Z,4.00
2019-04-28T20:45:34.151Z,4.00
2019-04-28T20:48:19.326Z,4.00
2019-04-28T21:03:52.875Z,4.00
2019-04-28T21:04:52.872Z,4.00
2019-04-28T21:05:52.824Z,4.00
2019-04-28T21:06:19.603Z,4.00
2019-04-28T21:07:25.833Z,4.00
2019-04-28T21:08:25.821Z,4.00
2019-04-28T21:09:19.524Z,4.00
2019-04-28T21:10:19.511Z,4.00
2019-04-28T21:11:19.482Z,4.00